Weather - Helsinki Query any day in the database

Current weather  

Weather data for a selected day (2006-01-01 -2020-10-30)
Enter date:     <-     scroll days         ->
day curves
Low temperature°C +2.021:50
High temperature°C +9.008:20
Low wind chill°C -1.821:20
Average temperature°C +5.4 
High wind speed (10 min) m/s 17.010:20
Low pressurehPa 983.008:20
High pressurehPa 1007.020:20
Low R.H% 5209:50
High R.H% 9303:20
Day weather data as a table
Date Time Temp
°C
Chill
°C
Pressure
hPA
Wind
m/s
Hum
%
Precip
mm
2011-12-26 23:50:00 3.0  -0.6  1003.0 4.0 69 -
2011-12-26 23:20:00 3.0  0.1  1004.0 3.0 69 -
2011-12-26 22:50:00 3.0  3.0  1005.0 0.0 69 -
2011-12-26 22:20:00 3.0  2.5  1005.0 1.0 64 -
2011-12-26 21:50:00 2.0  -0.1  1005.0 2.0 69 -
2011-12-26 21:20:00 2.0  -1.8  1006.0 4.0 69 -
2011-12-26 20:50:00 3.0  -0.6  1006.0 4.0 64 -
2011-12-26 20:20:00 3.0  -1.2  1007.0 5.0 64 -
2011-12-26 19:50:00 3.0  -1.7  1006.0 6.0 64 -
2011-12-26 19:20:00 3.0  -1.7  1006.0 6.0 64 -
2011-12-26 18:50:00 4.0  -0.8  1006.0 7.0 60 -
2011-12-26 17:50:00 4.0  -1.8  1005.0 10.0 60 -
2011-12-26 17:20:00 4.0  -1.5  1005.0 9.0 55 -
2011-12-26 16:20:00 5.0  0.2  1002.0 8.0 52 -
2011-12-26 15:20:00 5.0  -0.7  1000.0 11.0 52 -
2011-12-26 14:50:00 5.0  -0.4  999.0 10.0 52 -
2011-12-26 14:20:00 6.0  0.7  998.0 11.0 52 -
2011-12-26 13:50:00 6.0  0.2  997.0 13.0 52 -
2011-12-26 13:20:00 6.0  0.2  996.0 13.0 52 -
2011-12-26 12:50:00 6.0  0.2  995.0 13.0 56 -
2011-12-26 12:20:00 7.0  1.6  993.0 13.0 52 -
2011-12-26 11:50:00 7.0  1.4  992.0 14.0 56 -
2011-12-26 11:20:00 7.0  1.0  991.0 16.0 56 -
2011-12-26 10:50:00 8.0  2.6  989.0 15.0 52 -
2011-12-26 10:20:00 8.0  2.3  988.0 17.0 52 -
2011-12-26 09:50:00 8.0  2.7  987.0 14.0 52 -
2011-12-26 09:20:00 6.0  -0.2  986.0 15.0 75 -
2011-12-26 08:50:00 7.0  1.0  985.0 16.0 70 -
2011-12-26 08:20:00 9.0  4.3  983.0 13.0 53 -
2011-12-26 07:50:00 8.0  3.3  983.0 11.0 56 -
2011-12-26 06:50:00 8.0  3.3  983.0 11.0 70 -
2011-12-26 05:50:00 8.0  3.3  983.0 11.0 81 -
2011-12-26 05:20:00 8.0  3.5  983.0 10.0 81 -
2011-12-26 03:20:00 6.0  0.2  984.0 13.0 93 -
2011-12-26 02:50:00 6.0  0.4  985.0 12.0 93 -
2011-12-26 02:20:00 5.0  -1.1  987.0 13.0 93 -
2011-12-26 01:50:00 5.0  -1.1  989.0 13.0 93 -
2011-12-26 00:50:00 5.0  -0.9  992.0 12.0 86 -
2011-12-26 00:20:00 6.0  0.2  994.0 13.0 81 -
Unit conversions: